Time;durP1;ratioP1;P1;durP2;ratioP2;P2;SDS_P1;SDS_P2;PMS_P1;PMS_P2;Temp;Humidity;BMP_temperature;BMP_pressure;BME280_temperature;BME280_humidity;BME280_pressure;Samples;Min_cycle;Max_cycle;Signal;HPM_P1;HPM_P2
2022/06/26 00:00:07;;;;;;;;;;;16.60;99.90;;;;;;5090305;28;19916;-75
2022/06/26 00:02:33;;;;;;;;;;;16.70;99.90;;;;;;5087722;28;20029;-76
2022/06/26 00:04:59;;;;;;;;;;;16.70;99.90;;;;;;5090047;28;19928;-74
2022/06/26 00:07:24;;;;;;;;;;;16.70;99.90;;;;;;5095038;28;19919;-75
2022/06/26 00:09:50;;;;;;;;;;;16.60;99.90;;;;;;5090033;28;19974;-74
2022/06/26 00:12:16;;;;;;;;;;;16.60;99.90;;;;;;5089156;28;20294;-78
2022/06/26 00:14:41;;;;;;;;;;;16.60;99.90;;;;;;5095619;28;20218;-74
2022/06/26 00:17:07;;;;;;;;;;;16.60;99.90;;;;;;5089377;28;19912;-75
2022/06/26 00:19:33;;;;;;;;;;;16.60;99.90;;;;;;5095513;28;19919;-74
2022/06/26 00:21:59;;;;;;;;;;;16.50;99.90;;;;;;5091163;28;19931;-75
2022/06/26 00:24:24;;;;;;;;;;;16.60;99.90;;;;;;5090200;28;19920;-74
2022/06/26 00:26:50;;;;;;;;;;;16.60;99.90;;;;;;5085930;28;20210;-74
2022/06/26 00:29:15;;;;;;;;;;;16.60;99.90;;;;;;5085534;28;20017;-75
2022/06/26 00:31:41;;;;;;;;;;;16.60;99.90;;;;;;5087142;28;19919;-75
2022/06/26 00:34:07;;;;;;;;;;;16.60;99.90;;;;;;5081405;28;19948;-75
2022/06/26 00:36:32;;;;;;;;;;;16.60;99.90;;;;;;5091223;28;19912;-75
2022/06/26 00:38:58;;;;;;;;;;;16.60;99.90;;;;;;5093757;28;19931;-76
2022/06/26 00:41:23;;;;;;;;;;;16.60;99.90;;;;;;5093877;28;19912;-76
2022/06/26 00:43:49;;;;;;;;;;;16.60;99.90;;;;;;5092845;28;19916;-76
2022/06/26 00:46:14;;;;;;;;;;;16.50;99.90;;;;;;5092799;28;19924;-77
2022/06/26 00:48:40;;;;;;;;;;;16.50;99.90;;;;;;5092329;28;19998;-77
2022/06/26 00:51:06;;;;;;;;;;;16.60;99.90;;;;;;5095943;28;20058;-75
2022/06/26 00:53:31;;;;;;;;;;;16.60;99.90;;;;;;5077996;28;19962;-76
2022/06/26 00:55:57;;;;;;;;;;;16.60;99.90;;;;;;5092886;28;20200;-78
2022/06/26 00:58:24;;;;;;;;;;;16.50;99.90;;;;;;5129009;27;20356;-77
2022/06/26 01:00:49;;;;;;;;;;;16.60;99.90;;;;;;5091684;28;20238;-77
2022/06/26 01:03:15;;;;;;;;;;;16.70;99.90;;;;;;5093262;28;19912;-78
2022/06/26 01:05:40;;;;;;;;;;;16.70;99.90;;;;;;5091645;28;20330;-78
2022/06/26 01:08:07;;;;;;;;;;;16.70;99.90;;;;;;5094223;28;19912;-78
2022/06/26 01:10:33;;;;;;;;;;;16.70;99.90;;;;;;5091538;28;19916;-78
2022/06/26 01:12:59;;;;;;;;;;;16.70;99.90;;;;;;5092232;28;19916;-78
2022/06/26 01:15:25;;;;;;;;;;;16.70;99.90;;;;;;5095866;28;19938;-79
2022/06/26 01:17:51;;;;;;;;;;;16.70;99.90;;;;;;5092752;28;19916;-79
2022/06/26 01:20:16;;;;;;;;;;;16.60;99.90;;;;;;5093455;28;19919;-79
2022/06/26 01:22:43;;;;;;;;;;;16.60;99.90;;;;;;5089912;28;19919;-79
2022/06/26 01:25:08;;;;;;;;;;;16.60;99.90;;;;;;5083942;28;20455;-78
2022/06/26 01:27:41;;;;;;;;;;;16.60;99.90;;;;;;5093845;28;19916;-80
2022/06/26 01:30:07;;;;;;;;;;;16.70;99.90;;;;;;5080527;28;20208;-80
2022/06/26 01:32:33;;;;;;;;;;;16.70;99.90;;;;;;5088945;28;19920;-79
2022/06/26 01:34:58;;;;;;;;;;;16.70;99.90;;;;;;5094334;28;19920;-77
2022/06/26 01:37:24;;;;;;;;;;;16.70;99.90;;;;;;5081505;28;19923;-79
2022/06/26 01:39:49;;;;;;;;;;;16.70;99.90;;;;;;5089681;28;20227;-79
2022/06/26 01:42:15;;;;;;;;;;;16.70;99.90;;;;;;5078438;28;20402;-80
2022/06/26 01:44:40;;;;;;;;;;;16.70;99.90;;;;;;5090188;28;19946;-80
2022/06/26 01:47:06;;;;;;;;;;;16.70;99.90;;;;;;5094449;28;19923;-80
2022/06/26 01:49:32;;;;;;;;;;;16.70;99.90;;;;;;5099157;28;19912;-79
2022/06/26 01:51:57;;;;;;;;;;;16.70;99.90;;;;;;5093250;28;19946;-80
2022/06/26 01:54:23;;;;;;;;;;;16.60;99.90;;;;;;5085408;28;19920;-81
2022/06/26 01:56:49;;;;;;;;;;;16.50;99.90;;;;;;5087235;28;20212;-78
2022/06/26 01:59:14;;;;;;;;;;;16.50;99.90;;;;;;5091343;28;19928;-78
2022/06/26 02:01:40;;;;;;;;;;;16.50;99.90;;;;;;5081143;28;20266;-78
2022/06/26 02:04:05;;;;;;;;;;;16.50;99.90;;;;;;5088433;28;19912;-78
2022/06/26 02:06:31;;;;;;;;;;;16.40;99.90;;;;;;5092629;28;19911;-79
2022/06/26 02:08:56;;;;;;;;;;;16.40;99.90;;;;;;5081974;28;19920;-80
2022/06/26 02:14:06;;;;;;;;;;;16.30;99.90;;;;;;5092742;28;20332;-77
2022/06/26 02:16:32;;;;;;;;;;;16.30;99.90;;;;;;5091718;28;19951;-79
2022/06/26 02:18:58;;;;;;;;;;;16.20;99.90;;;;;;5097905;27;19917;-79
2022/06/26 02:21:25;;;;;;;;;;;16.20;99.90;;;;;;5087017;28;19954;-78
2022/06/26 02:23:51;;;;;;;;;;;16.20;99.90;;;;;;5071576;28;20386;-76
2022/06/26 02:26:18;;;;;;;;;;;16.20;99.90;;;;;;5092904;28;19912;-80
2022/06/26 02:28:44;;;;;;;;;;;16.20;99.90;;;;;;5090515;28;19927;-78
2022/06/26 02:31:10;;;;;;;;;;;16.20;99.90;;;;;;5091647;28;19919;-79
2022/06/26 02:33:36;;;;;;;;;;;16.10;99.90;;;;;;5093985;28;19912;-80
2022/06/26 02:36:02;;;;;;;;;;;16.10;99.90;;;;;;5089225;28;19998;-77
2022/06/26 02:38:28;;;;;;;;;;;16.10;99.90;;;;;;5088603;28;20295;-78
2022/06/26 02:40:53;;;;;;;;;;;16.10;99.90;;;;;;5081326;28;19927;-80
2022/06/26 02:43:23;;;;;;;;;;;16.00;99.90;;;;;;5087872;28;20330;-77
2022/06/26 02:45:49;;;;;;;;;;;16.00;99.90;;;;;;5089310;28;20484;-77
2022/06/26 02:48:15;;;;;;;;;;;15.90;99.90;;;;;;5092761;28;19916;-78
2022/06/26 02:50:41;;;;;;;;;;;15.90;99.90;;;;;;5092196;28;19912;-84
2022/06/26 02:53:06;;;;;;;;;;;15.80;99.90;;;;;;5080438;28;19917;-80
2022/06/26 02:55:32;;;;;;;;;;;15.80;99.90;;;;;;5092487;28;20254;-77
2022/06/26 02:57:58;;;;;;;;;;;15.70;99.90;;;;;;5092099;28;20007;-78
2022/06/26 03:00:23;;;;;;;;;;;15.80;99.90;;;;;;5090882;28;19923;-77
2022/06/26 03:02:49;;;;;;;;;;;15.70;99.90;;;;;;5084763;28;20255;-77
2022/06/26 03:05:15;;;;;;;;;;;15.70;99.90;;;;;;5088976;28;20254;-76
2022/06/26 03:07:40;;;;;;;;;;;15.70;99.90;;;;;;5079724;28;20219;-79
2022/06/26 03:10:06;;;;;;;;;;;15.60;99.90;;;;;;5079870;28;19923;-78
2022/06/26 03:12:32;;;;;;;;;;;15.60;99.90;;;;;;5083546;28;19919;-77
2022/06/26 03:14:57;;;;;;;;;;;15.60;99.90;;;;;;5087996;28;19908;-78
2022/06/26 03:17:24;;;;;;;;;;;15.70;99.90;;;;;;5092665;28;19912;-78
2022/06/26 03:19:50;;;;;;;;;;;15.70;99.90;;;;;;5084718;28;19939;-78
2022/06/26 03:22:16;;;;;;;;;;;15.70;99.90;;;;;;5078447;28;20295;-78
2022/06/26 03:24:42;;;;;;;;;;;15.70;99.90;;;;;;5082559;28;19913;-76
2022/06/26 03:27:07;;;;;;;;;;;15.70;99.90;;;;;;5088688;28;19919;-77
2022/06/26 03:29:33;;;;;;;;;;;15.70;99.90;;;;;;5089217;28;19920;-77
2022/06/26 03:31:59;;;;;;;;;;;15.70;99.90;;;;;;5112596;28;20310;-76
2022/06/26 03:34:24;;;;;;;;;;;15.70;99.90;;;;;;5076773;28;19986;-77
2022/06/26 03:36:50;;;;;;;;;;;15.70;99.90;;;;;;5080961;28;19920;-77
2022/06/26 03:39:15;;;;;;;;;;;15.70;99.90;;;;;;5097828;28;19919;-77
2022/06/26 03:41:41;;;;;;;;;;;15.70;99.90;;;;;;5098578;28;19909;-78
2022/06/26 03:44:07;;;;;;;;;;;15.70;99.90;;;;;;5086540;28;19923;-76
2022/06/26 03:46:33;;;;;;;;;;;15.60;99.90;;;;;;5078428;28;20214;-76
2022/06/26 03:48:58;;;;;;;;;;;15.50;99.90;;;;;;5087452;28;20258;-76
2022/06/26 03:51:24;;;;;;;;;;;15.50;99.90;;;;;;5096259;28;19913;-78
2022/06/26 03:53:49;;;;;;;;;;;15.50;99.90;;;;;;5089793;28;19922;-76
2022/06/26 03:56:15;;;;;;;;;;;15.50;99.90;;;;;;5095690;28;20295;-80
2022/06/26 03:58:41;;;;;;;;;;;15.50;99.90;;;;;;5090077;28;20235;-76
2022/06/26 04:01:06;;;;;;;;;;;15.40;99.90;;;;;;5078153;28;19913;-78
2022/06/26 04:03:32;;;;;;;;;;;15.30;99.90;;;;;;5095801;28;19912;-80
2022/06/26 04:05:57;;;;;;;;;;;15.30;99.90;;;;;;5092678;28;19927;-76
2022/06/26 04:08:23;;;;;;;;;;;15.30;99.90;;;;;;5096962;28;20053;-75
2022/06/26 04:10:48;;;;;;;;;;;15.30;99.90;;;;;;5095841;28;20038;-77
2022/06/26 04:13:14;;;;;;;;;;;15.30;99.90;;;;;;5094465;28;19920;-77
2022/06/26 04:15:40;;;;;;;;;;;15.30;99.90;;;;;;5088385;28;20275;-78
2022/06/26 04:18:06;;;;;;;;;;;15.20;99.90;;;;;;5097616;28;20022;-78
2022/06/26 04:20:31;;;;;;;;;;;15.20;99.90;;;;;;5089306;28;20230;-77
2022/06/26 04:23:01;;;;;;;;;;;15.20;99.90;;;;;;5085301;28;19912;-77
2022/06/26 04:25:29;;;;;;;;;;;15.20;99.90;;;;;;5093700;28;19916;-77
2022/06/26 04:27:54;;;;;;;;;;;15.20;99.90;;;;;;5095051;28;20007;-76
2022/06/26 04:30:20;;;;;;;;;;;15.20;99.90;;;;;;5097015;28;20008;-76
2022/06/26 04:32:46;;;;;;;;;;;15.30;99.90;;;;;;5086293;28;19919;-77
2022/06/26 04:35:12;;;;;;;;;;;15.20;99.90;;;;;;5093701;28;19923;-76
2022/06/26 04:37:38;;;;;;;;;;;15.30;99.90;;;;;;5095488;28;19916;-76
2022/06/26 04:40:07;;;;;;;;;;;15.30;99.90;;;;;;5090277;28;19938;-75
2022/06/26 04:42:32;;;;;;;;;;;15.30;99.90;;;;;;5090616;28;19912;-76
2022/06/26 04:44:58;;;;;;;;;;;15.30;99.90;;;;;;5094978;28;19918;-80
2022/06/26 04:47:23;;;;;;;;;;;15.40;99.90;;;;;;5085229;28;19916;-78
2022/06/26 04:49:49;;;;;;;;;;;15.40;99.90;;;;;;5128641;27;19981;-78
2022/06/26 04:52:15;;;;;;;;;;;15.40;99.90;;;;;;5084518;28;19989;-79
2022/06/26 04:54:41;;;;;;;;;;;15.50;99.90;;;;;;5085030;28;19921;-79
2022/06/26 04:57:06;;;;;;;;;;;15.50;99.90;;;;;;5093484;28;19935;-79
2022/06/26 04:59:32;;;;;;;;;;;15.60;99.90;;;;;;5086010;28;19989;-83
2022/06/26 05:01:57;;;;;;;;;;;15.60;99.90;;;;;;5089674;28;19909;-78
2022/06/26 05:04:23;;;;;;;;;;;15.60;99.90;;;;;;5090798;28;19920;-76
2022/06/26 05:06:48;;;;;;;;;;;15.60;99.90;;;;;;5081707;28;19927;-77
2022/06/26 05:09:14;;;;;;;;;;;15.60;99.90;;;;;;5094961;28;19908;-78
2022/06/26 05:11:41;;;;;;;;;;;15.70;99.90;;;;;;5091864;28;20254;-78
2022/06/26 05:14:07;;;;;;;;;;;15.70;99.90;;;;;;5095015;28;20303;-76
2022/06/26 05:16:33;;;;;;;;;;;15.70;99.90;;;;;;5070062;28;19927;-77
2022/06/26 05:18:58;;;;;;;;;;;15.70;99.90;;;;;;5083030;28;19935;-76
2022/06/26 05:21:24;;;;;;;;;;;15.80;99.90;;;;;;5104830;28;19943;-78
2022/06/26 05:23:50;;;;;;;;;;;15.80;99.90;;;;;;5102878;27;19912;-77
2022/06/26 05:26:15;;;;;;;;;;;15.80;99.90;;;;;;5094092;28;19912;-77
2022/06/26 05:28:41;;;;;;;;;;;15.90;99.90;;;;;;5092413;28;19965;-77
2022/06/26 05:31:06;;;;;;;;;;;15.90;99.90;;;;;;5093945;28;20036;-78
2022/06/26 05:33:32;;;;;;;;;;;15.90;99.90;;;;;;5091356;28;19947;-78
2022/06/26 05:35:57;;;;;;;;;;;16.00;99.90;;;;;;5113247;27;19965;-78
2022/06/26 05:38:23;;;;;;;;;;;16.00;99.90;;;;;;5114046;27;20197;-78
2022/06/26 05:40:48;;;;;;;;;;;16.00;99.90;;;;;;5087291;28;19921;-77
2022/06/26 05:43:14;;;;;;;;;;;16.10;99.90;;;;;;5084413;28;19955;-77
2022/06/26 05:45:39;;;;;;;;;;;16.10;99.90;;;;;;5084604;28;19912;-78
2022/06/26 05:48:06;;;;;;;;;;;16.10;99.90;;;;;;5090050;28;19935;-78
2022/06/26 05:50:32;;;;;;;;;;;16.20;99.90;;;;;;5091073;28;19926;-78
2022/06/26 05:52:57;;;;;;;;;;;16.30;99.90;;;;;;5088040;28;19912;-77
2022/06/26 05:55:23;;;;;;;;;;;16.30;99.90;;;;;;5089836;28;20015;-77
2022/06/26 05:57:48;;;;;;;;;;;16.30;99.90;;;;;;5090921;28;19916;-78
2022/06/26 06:00:14;;;;;;;;;;;16.40;99.90;;;;;;5086155;28;19928;-78
2022/06/26 06:02:40;;;;;;;;;;;16.50;99.90;;;;;;5088659;28;19913;-79
2022/06/26 06:05:06;;;;;;;;;;;16.50;99.90;;;;;;5092336;28;19919;-77
2022/06/26 06:07:31;;;;;;;;;;;16.50;99.90;;;;;;5087288;28;19918;-77
2022/06/26 06:09:57;;;;;;;;;;;16.50;99.90;;;;;;5090471;28;19912;-75
2022/06/26 06:12:22;;;;;;;;;;;16.60;99.90;;;;;;5087715;28;19912;-78
2022/06/26 06:14:48;;;;;;;;;;;16.70;99.90;;;;;;5085256;28;19919;-78
2022/06/26 06:19:58;;;;;;;;;;;16.80;99.90;;;;;;5088087;28;19943;-79
2022/06/26 06:22:23;;;;;;;;;;;16.80;99.90;;;;;;5089773;28;20323;-80
2022/06/26 06:24:49;;;;;;;;;;;16.80;99.90;;;;;;5122179;27;19931;-79
2022/06/26 06:27:15;;;;;;;;;;;16.90;99.90;;;;;;5086922;28;19919;-78
2022/06/26 06:29:40;;;;;;;;;;;16.90;99.90;;;;;;5088541;28;19913;-78
2022/06/26 06:32:06;;;;;;;;;;;17.10;99.90;;;;;;5088190;28;20211;-78
2022/06/26 06:34:31;;;;;;;;;;;17.20;99.90;;;;;;5087505;28;20303;-80
2022/06/26 06:36:57;;;;;;;;;;;17.30;99.90;;;;;;5089721;28;20207;-78
2022/06/26 06:39:22;;;;;;;;;;;17.50;99.90;;;;;;5088663;28;19926;-78
2022/06/26 06:41:48;;;;;;;;;;;17.70;99.90;;;;;;5090344;28;19916;-79
2022/06/26 06:44:14;;;;;;;;;;;17.90;99.90;;;;;;5090411;28;19916;-82
2022/06/26 06:46:39;;;;;;;;;;;18.10;99.90;;;;;;5086845;28;19912;-80
2022/06/26 06:49:05;;;;;;;;;;;18.30;99.90;;;;;;5088712;28;19912;-81
2022/06/26 06:51:30;;;;;;;;;;;18.30;99.90;;;;;;5086033;28;19918;-81
2022/06/26 06:53:56;;;;;;;;;;;18.30;99.90;;;;;;5108694;28;20207;-81
2022/06/26 06:56:22;;;;;;;;;;;18.20;99.90;;;;;;5085956;28;19912;-81
2022/06/26 06:58:47;;;;;;;;;;;18.10;99.90;;;;;;5088516;28;19954;-80
2022/06/26 07:01:13;;;;;;;;;;;18.00;99.90;;;;;;5087458;28;19961;-78
2022/06/26 07:03:39;;;;;;;;;;;18.00;99.90;;;;;;5105107;27;20448;-78
2022/06/26 07:06:04;;;;;;;;;;;18.10;99.90;;;;;;5094374;28;20006;-78
2022/06/26 07:08:30;;;;;;;;;;;18.10;99.90;;;;;;5107875;28;20001;-78
2022/06/26 07:10:56;;;;;;;;;;;18.00;99.90;;;;;;5117823;27;19912;-81
2022/06/26 07:13:21;;;;;;;;;;;18.10;99.90;;;;;;5096227;28;19973;-81
2022/06/26 07:15:47;;;;;;;;;;;18.20;99.90;;;;;;5108142;28;19919;-79
2022/06/26 07:18:12;;;;;;;;;;;18.30;99.90;;;;;;5117561;27;19923;-79
2022/06/26 07:20:38;;;;;;;;;;;18.40;99.90;;;;;;5089825;28;19920;-80
2022/06/26 07:23:03;;;;;;;;;;;18.40;99.90;;;;;;5090940;28;20299;-81
2022/06/26 07:25:30;;;;;;;;;;;18.40;99.90;;;;;;5122366;27;19920;-81
2022/06/26 07:27:55;;;;;;;;;;;18.40;99.90;;;;;;5091605;28;19961;-80
2022/06/26 07:30:21;;;;;;;;;;;18.40;99.90;;;;;;5095532;28;19999;-80
2022/06/26 07:32:46;;;;;;;;;;;18.40;99.90;;;;;;5091769;28;19912;-79
2022/06/26 07:35:12;;;;;;;;;;;18.50;99.90;;;;;;5119846;27;20302;-83
2022/06/26 07:37:37;;;;;;;;;;;18.60;99.90;;;;;;5081908;28;19908;-80
2022/06/26 07:40:04;;;;;;;;;;;18.70;99.90;;;;;;5087405;28;20215;-80
2022/06/26 07:42:30;;;;;;;;;;;18.70;99.90;;;;;;5082132;28;19916;-78
2022/06/26 07:44:55;;;;;;;;;;;18.70;99.90;;;;;;5083554;28;20598;-81
2022/06/26 07:47:21;;;;;;;;;;;18.60;99.90;;;;;;5087886;28;20315;-78
2022/06/26 07:49:46;;;;;;;;;;;18.50;99.90;;;;;;5089300;28;19912;-78
2022/06/26 07:52:12;;;;;;;;;;;18.40;99.90;;;;;;5103402;28;19944;-79
2022/06/26 07:54:37;;;;;;;;;;;18.50;99.90;;;;;;5089080;28;19917;-78
2022/06/26 07:57:03;;;;;;;;;;;18.50;99.90;;;;;;5089566;28;20003;-81
2022/06/26 07:59:29;;;;;;;;;;;18.60;99.90;;;;;;5116345;27;19928;-78
2022/06/26 08:01:54;;;;;;;;;;;18.60;99.90;;;;;;5086021;28;19919;-78
2022/06/26 08:04:20;;;;;;;;;;;18.70;99.90;;;;;;5102135;28;19923;-78
2022/06/26 08:06:45;;;;;;;;;;;18.80;99.90;;;;;;5083133;28;20205;-78
2022/06/26 08:09:11;;;;;;;;;;;18.80;99.90;;;;;;5119392;27;19961;-77
2022/06/26 08:11:36;;;;;;;;;;;18.90;99.90;;;;;;5093031;28;19966;-78
2022/06/26 08:14:02;;;;;;;;;;;18.90;99.90;;;;;;5084438;28;19919;-78
2022/06/26 08:16:27;;;;;;;;;;;19.00;99.90;;;;;;5084829;28;19919;-78
2022/06/26 08:18:53;;;;;;;;;;;19.10;99.90;;;;;;5104592;27;19924;-78
2022/06/26 08:24:06;;;;;;;;;;;19.20;99.90;;;;;;5094859;28;20018;-78
2022/06/26 08:26:31;;;;;;;;;;;19.30;99.90;;;;;;5092183;28;20027;-78
2022/06/26 08:28:57;;;;;;;;;;;19.20;99.90;;;;;;5091808;28;19919;-78
2022/06/26 08:31:22;;;;;;;;;;;19.10;99.90;;;;;;5093470;28;20330;-78
2022/06/26 08:33:48;;;;;;;;;;;19.30;99.90;;;;;;5094655;28;20011;-78
2022/06/26 08:36:13;;;;;;;;;;;19.30;99.90;;;;;;5107210;28;19965;-78
2022/06/26 08:38:39;;;;;;;;;;;19.20;99.90;;;;;;5092522;28;19928;-78
2022/06/26 08:41:07;;;;;;;;;;;19.00;99.90;;;;;;5118183;27;19912;-78
2022/06/26 08:43:33;;;;;;;;;;;19.10;99.90;;;;;;5089255;28;20003;-78
2022/06/26 08:46:03;;;;;;;;;;;19.20;99.90;;;;;;5091345;28;19920;-79
2022/06/26 08:48:35;;;;;;;;;;;19.20;99.90;;;;;;5092884;28;19919;-79
2022/06/26 08:51:01;;;;;;;;;;;19.20;99.90;;;;;;5088578;28;19912;-78
2022/06/26 08:53:27;;;;;;;;;;;19.30;99.90;;;;;;5088078;28;19924;-80
2022/06/26 08:55:53;;;;;;;;;;;19.40;99.90;;;;;;5084053;28;19938;-78
2022/06/26 08:58:19;;;;;;;;;;;19.50;99.90;;;;;;5087911;28;19931;-78
2022/06/26 09:00:46;;;;;;;;;;;19.60;99.90;;;;;;5092726;28;19912;-79
2022/06/26 09:03:12;;;;;;;;;;;19.80;99.90;;;;;;5103652;28;19921;-79
2022/06/26 09:05:38;;;;;;;;;;;19.80;99.90;;;;;;5084360;28;19917;-78
2022/06/26 09:08:03;;;;;;;;;;;19.90;99.90;;;;;;5093824;28;19918;-78
2022/06/26 09:10:34;;;;;;;;;;;20.40;99.90;;;;;;5086610;28;19927;-77
2022/06/26 09:13:00;;;;;;;;;;;20.60;99.90;;;;;;5089787;28;19967;-79
2022/06/26 09:15:26;;;;;;;;;;;20.60;99.90;;;;;;5085168;28;19967;-79
2022/06/26 09:17:54;;;;;;;;;;;20.60;99.90;;;;;;5100771;28;19919;-79
2022/06/26 09:20:20;;;;;;;;;;;20.40;99.90;;;;;;5087723;28;19947;-79
2022/06/26 09:22:53;;;;;;;;;;;20.20;99.90;;;;;;5087759;28;19920;-78
2022/06/26 09:25:19;;;;;;;;;;;20.20;99.90;;;;;;5086621;28;19924;-78
2022/06/26 09:27:45;;;;;;;;;;;20.20;99.90;;;;;;5087802;28;20207;-78
2022/06/26 09:30:11;;;;;;;;;;;20.40;99.90;;;;;;5112981;27;19912;-78
2022/06/26 09:32:36;;;;;;;;;;;20.40;99.90;;;;;;5085959;28;19919;-78
2022/06/26 09:35:02;;;;;;;;;;;20.30;99.90;;;;;;5087295;28;19916;-79
2022/06/26 09:37:33;;;;;;;;;;;20.30;99.90;;;;;;5085553;28;19970;-78
2022/06/26 09:40:03;;;;;;;;;;;20.50;99.90;;;;;;5086486;28;20615;-78
2022/06/26 09:42:31;;;;;;;;;;;20.70;99.90;;;;;;5085933;28;19916;-79
2022/06/26 09:44:59;;;;;;;;;;;20.80;99.90;;;;;;5082299;28;19912;-78
2022/06/26 09:47:29;;;;;;;;;;;21.00;99.90;;;;;;5079424;28;19920;-78
2022/06/26 09:49:56;;;;;;;;;;;21.10;99.90;;;;;;5085704;28;20239;-79
2022/06/26 09:52:22;;;;;;;;;;;21.00;99.90;;;;;;5082466;28;19920;-79
2022/06/26 09:54:48;;;;;;;;;;;21.00;99.90;;;;;;5085201;28;20287;-78
2022/06/26 09:57:14;;;;;;;;;;;21.10;99.90;;;;;;5087569;28;19921;-81
2022/06/26 09:59:40;;;;;;;;;;;21.30;99.90;;;;;;5086709;28;19935;-81
2022/06/26 10:07:37;;;;;;;;;;;21.50;99.90;;;;;;5086074;28;19918;-78
2022/06/26 10:10:03;;;;;;;;;;;21.30;99.90;;;;;;5081382;28;20254;-78
2022/06/26 10:12:28;;;;;;;;;;;21.50;99.90;;;;;;5118755;27;19916;-76
2022/06/26 10:14:55;;;;;;;;;;;21.70;99.90;;;;;;5084678;28;19916;-78
2022/06/26 10:17:26;;;;;;;;;;;21.70;99.90;;;;;;5087906;28;19912;-77
2022/06/26 10:19:56;;;;;;;;;;;21.60;99.90;;;;;;5095957;28;19916;-76
2022/06/26 10:22:22;;;;;;;;;;;21.50;99.90;;;;;;5099787;27;19959;-78
2022/06/26 10:24:55;;;;;;;;;;;21.30;99.90;;;;;;5116454;27;19955;-78
2022/06/26 10:27:25;;;;;;;;;;;21.20;99.90;;;;;;5084621;28;20317;-78
2022/06/26 10:29:50;;;;;;;;;;;21.50;99.90;;;;;;5089065;28;19928;-78
2022/06/26 10:32:22;;;;;;;;;;;21.80;99.90;;;;;;5086596;28;20188;-78
2022/06/26 10:34:54;;;;;;;;;;;21.80;99.90;;;;;;5085796;28;20298;-77
2022/06/26 10:37:19;;;;;;;;;;;22.10;99.90;;;;;;5079902;28;20035;-77
2022/06/26 10:39:49;;;;;;;;;;;22.40;99.90;;;;;;5086705;28;19998;-77
2022/06/26 10:45:11;;;;;;;;;;;22.60;99.90;;;;;;5093223;28;20343;-77
2022/06/26 10:47:40;;;;;;;;;;;23.00;99.90;;;;;;5081454;28;19942;-76
2022/06/26 10:50:06;;;;;;;;;;;23.10;99.90;;;;;;5088052;28;20303;-79
2022/06/26 10:52:31;;;;;;;;;;;23.10;99.90;;;;;;5090498;28;19919;-78
2022/06/26 10:55:02;;;;;;;;;;;23.20;99.90;;;;;;5089285;28;19973;-78
2022/06/26 10:57:38;;;;;;;;;;;23.20;99.90;;;;;;5080162;28;19970;-78
2022/06/26 11:00:04;;;;;;;;;;;23.30;99.90;;;;;;5085709;28;20200;-76
2022/06/26 11:02:38;;;;;;;;;;;23.50;99.90;;;;;;5089785;28;19920;-80
2022/06/26 11:05:04;;;;;;;;;;;23.50;99.90;;;;;;5091076;28;19919;-78
2022/06/26 11:07:39;;;;;;;;;;;23.60;99.90;;;;;;5089128;28;19930;-78
2022/06/26 11:10:08;;;;;;;;;;;23.40;99.90;;;;;;5089149;28;19912;-79
2022/06/26 11:12:59;;;;;;;;;;;23.20;99.90;;;;;;5087504;28;19965;-77
2022/06/26 11:15:32;;;;;;;;;;;23.10;99.90;;;;;;5083979;28;19920;-77
2022/06/26 11:17:59;;;;;;;;;;;22.80;99.90;;;;;;5089197;28;19912;-77
2022/06/26 11:23:13;;;;;;;;;;;22.70;99.90;;;;;;5086991;28;20226;-76
2022/06/26 11:25:40;;;;;;;;;;;22.90;99.90;;;;;;5084541;28;19922;-77
2022/06/26 11:28:08;;;;;;;;;;;23.10;99.90;;;;;;5074627;28;19962;-78
2022/06/26 11:30:35;;;;;;;;;;;23.30;99.90;;;;;;5085969;28;19927;-76
2022/06/26 11:33:00;;;;;;;;;;;23.60;99.90;;;;;;5086815;28;19912;-79
2022/06/26 11:35:26;;;;;;;;;;;23.60;99.90;;;;;;5086466;28;19943;-75
2022/06/26 11:37:51;;;;;;;;;;;23.20;99.90;;;;;;5085464;28;20019;-77
2022/06/26 11:40:18;;;;;;;;;;;23.30;99.90;;;;;;5086150;28;19920;-76
2022/06/26 11:42:44;;;;;;;;;;;23.20;99.90;;;;;;5085570;28;19920;-76
2022/06/26 11:45:09;;;;;;;;;;;22.90;99.90;;;;;;5082421;28;20613;-77
2022/06/26 11:47:37;;;;;;;;;;;22.70;99.90;;;;;;5090876;28;19916;-77
2022/06/26 11:50:03;;;;;;;;;;;22.40;99.90;;;;;;5086322;28;19916;-77
2022/06/26 11:52:28;;;;;;;;;;;22.20;99.90;;;;;;5117813;27;19934;-77
2022/06/26 11:55:01;;;;;;;;;;;22.10;99.90;;;;;;5086603;28;19923;-77
2022/06/26 11:57:27;;;;;;;;;;;22.10;99.90;;;;;;5089597;28;19922;-77
2022/06/26 11:59:52;;;;;;;;;;;22.10;99.90;;;;;;5090667;28;20588;-76
2022/06/26 12:02:19;;;;;;;;;;;22.10;99.90;;;;;;5110407;27;19921;-76
2022/06/26 12:04:58;;;;;;;;;;;22.20;99.90;;;;;;5090371;28;20230;-75
2022/06/26 12:07:24;;;;;;;;;;;22.30;99.90;;;;;;5084783;28;19927;-77
2022/06/26 12:09:50;;;;;;;;;;;22.10;99.90;;;;;;5090669;28;19927;-77
2022/06/26 12:12:15;;;;;;;;;;;22.00;99.90;;;;;;5090289;28;19920;-75
2022/06/26 12:14:51;;;;;;;;;;;22.10;99.90;;;;;;5090450;28;20311;-75
2022/06/26 12:17:27;;;;;;;;;;;21.90;99.90;;;;;;5098919;27;19916;-76
2022/06/26 12:19:52;;;;;;;;;;;21.90;99.90;;;;;;5090523;28;19924;-78
2022/06/26 12:22:25;;;;;;;;;;;22.00;99.90;;;;;;5083214;28;19926;-75
2022/06/26 12:24:51;;;;;;;;;;;22.00;99.90;;;;;;5088406;28;19960;-78
2022/06/26 12:27:16;;;;;;;;;;;22.40;99.90;;;;;;5082089;28;19923;-76
2022/06/26 12:29:42;;;;;;;;;;;22.80;99.90;;;;;;5118231;27;19990;-79
2022/06/26 12:32:07;;;;;;;;;;;22.90;99.90;;;;;;5087541;28;19939;-77
2022/06/26 12:34:33;;;;;;;;;;;23.10;99.90;;;;;;5090755;28;19920;-77
2022/06/26 12:36:59;;;;;;;;;;;23.10;99.90;;;;;;5083415;28;19920;-76
2022/06/26 12:39:24;;;;;;;;;;;22.60;99.90;;;;;;5117238;27;20226;-78
2022/06/26 12:41:50;;;;;;;;;;;22.40;99.90;;;;;;5086209;28;19920;-75
2022/06/26 12:44:15;;;;;;;;;;;22.10;99.90;;;;;;5090565;28;19912;-78
2022/06/26 12:46:41;;;;;;;;;;;22.10;99.90;;;;;;5080057;28;20553;-78
2022/06/26 12:49:06;;;;;;;;;;;22.00;99.90;;;;;;5111357;27;19922;-75
2022/06/26 12:51:32;;;;;;;;;;;21.80;99.90;;;;;;5089747;28;19962;-76
2022/06/26 12:53:58;;;;;;;;;;;21.80;99.90;;;;;;5088364;28;20018;-77
2022/06/26 12:56:24;;;;;;;;;;;21.70;99.90;;;;;;5087043;28;20389;-77
2022/06/26 12:58:50;;;;;;;;;;;21.60;99.90;;;;;;5089146;28;19928;-75
2022/06/26 13:01:15;;;;;;;;;;;21.50;99.90;;;;;;5092401;28;20317;-76
2022/06/26 13:03:41;;;;;;;;;;;21.30;99.90;;;;;;5089119;28;19912;-77
2022/06/26 13:06:06;;;;;;;;;;;21.00;99.90;;;;;;5091694;28;20204;-77
2022/06/26 13:08:34;;;;;;;;;;;20.90;99.90;;;;;;5084245;28;20317;-75
2022/06/26 13:13:45;;;;;;;;;;;21.20;99.90;;;;;;5090512;28;20026;-75
2022/06/26 13:16:10;;;;;;;;;;;21.30;99.90;;;;;;5086897;28;20007;-75
2022/06/26 13:18:36;;;;;;;;;;;21.60;99.90;;;;;;5084488;28;20329;-79
2022/06/26 13:21:02;;;;;;;;;;;21.90;99.90;;;;;;5082602;28;19919;-76
2022/06/26 13:23:28;;;;;;;;;;;21.80;99.90;;;;;;5072580;28;20246;-75
2022/06/26 13:25:54;;;;;;;;;;;21.90;99.90;;;;;;5080464;28;19916;-75
2022/06/26 13:28:20;;;;;;;;;;;22.50;99.90;;;;;;5079424;28;20042;-76
2022/06/26 13:30:46;;;;;;;;;;;22.70;99.90;;;;;;5076407;28;19952;-77
2022/06/26 13:33:11;;;;;;;;;;;22.90;99.90;;;;;;5079099;28;19916;-79
2022/06/26 13:35:37;;;;;;;;;;;23.20;99.90;;;;;;5083295;28;19920;-77
2022/06/26 13:38:02;;;;;;;;;;;23.40;99.90;;;;;;5088693;28;20015;-75
2022/06/26 13:40:28;;;;;;;;;;;23.50;99.90;;;;;;5090011;28;19916;-79
2022/06/26 13:42:53;;;;;;;;;;;23.70;99.90;;;;;;5087911;28;20504;-75
2022/06/26 13:45:19;;;;;;;;;;;23.50;99.90;;;;;;5090693;28;20553;-76
2022/06/26 13:47:44;;;;;;;;;;;23.50;99.90;;;;;;5080074;28;20246;-78
2022/06/26 13:50:10;;;;;;;;;;;23.50;99.90;;;;;;5089078;28;19916;-77
2022/06/26 13:52:37;;;;;;;;;;;23.60;99.90;;;;;;5111033;27;19916;-78
2022/06/26 13:55:06;;;;;;;;;;;23.70;99.90;;;;;;5083568;28;20353;-78
2022/06/26 13:57:32;;;;;;;;;;;23.90;99.90;;;;;;5078944;28;20058;-76
2022/06/26 13:59:57;;;;;;;;;;;24.30;99.70;;;;;;5088430;28;20007;-75
2022/06/26 14:02:23;;;;;;;;;;;24.50;99.90;;;;;;5082955;28;19920;-75
2022/06/26 14:04:48;;;;;;;;;;;24.50;99.90;;;;;;5081582;28;20323;-78
2022/06/26 14:07:14;;;;;;;;;;;23.90;99.50;;;;;;5097020;28;20296;-78
2022/06/26 14:09:40;;;;;;;;;;;23.60;99.00;;;;;;5081598;28;19915;-76
2022/06/26 14:12:06;;;;;;;;;;;23.40;99.80;;;;;;5082708;28;19921;-76
2022/06/26 14:14:32;;;;;;;;;;;23.20;99.90;;;;;;5084905;28;19912;-76
2022/06/26 14:16:57;;;;;;;;;;;23.10;99.90;;;;;;5082789;28;19916;-78
2022/06/26 14:19:23;;;;;;;;;;;22.70;99.90;;;;;;5084608;28;19916;-78
2022/06/26 14:25:55;;;;;;;;;;;22.30;99.90;;;;;;5087334;28;19978;-78
2022/06/26 14:27:18;;;;;;;;;;;21.50;99.90;;;;;;5083654;28;19923;-76
2022/06/26 14:29:44;;;;;;;;;;;21.70;99.90;;;;;;5087245;28;19916;-76
2022/06/26 14:32:09;;;;;;;;;;;21.80;99.90;;;;;;5090140;28;19920;-75
2022/06/26 14:34:35;;;;;;;;;;;22.00;99.90;;;;;;5098227;28;19913;-77